sensor_id;sensor_type;location;lat;lon;timestamp;pressure;altitude;pressure_sealevel;temperature;humidity
70411;BME280;57832;46.038;11.398;2023-03-26T00:00:40;96486.66;;;6.82;100.00
70411;BME280;57832;46.038;11.398;2023-03-26T00:03:11;96493.13;;;6.56;100.00
70411;BME280;57832;46.038;11.398;2023-03-26T00:05:38;96494.59;;;6.40;100.00
70411;BME280;57832;46.038;11.398;2023-03-26T00:08:04;96504.03;;;6.52;100.00
70411;BME280;57832;46.038;11.398;2023-03-26T00:10:36;96503.78;;;6.78;100.00
70411;BME280;57832;46.038;11.398;2023-03-26T00:13:03;96494.94;;;6.91;100.00
70411;BME280;57832;46.038;11.398;2023-03-26T00:15:28;96496.56;;;6.68;100.00
70411;BME280;57832;46.038;11.398;2023-03-26T00:17:54;96483.28;;;6.34;100.00
70411;BME280;57832;46.038;11.398;2023-03-26T00:20:21;96482.22;;;5.99;100.00
70411;BME280;57832;46.038;11.398;2023-03-26T00:22:46;96484.72;;;5.76;100.00
70411;BME280;57832;46.038;11.398;2023-03-26T00:25:12;96491.34;;;5.90;100.00
70411;BME280;57832;46.038;11.398;2023-03-26T00:27:39;96489.41;;;5.85;100.00
70411;BME280;57832;46.038;11.398;2023-03-26T00:30:05;96493.81;;;5.85;100.00
70411;BME280;57832;46.038;11.398;2023-03-26T00:32:30;96499.38;;;5.89;100.00
70411;BME280;57832;46.038;11.398;2023-03-26T00:34:56;96495.00;;;6.01;100.00
70411;BME280;57832;46.038;11.398;2023-03-26T00:37:22;96491.09;;;5.80;100.00
70411;BME280;57832;46.038;11.398;2023-03-26T00:39:54;96480.28;;;5.64;100.00
70411;BME280;57832;46.038;11.398;2023-03-26T00:42:27;96484.72;;;5.76;100.00
70411;BME280;57832;46.038;11.398;2023-03-26T00:44:53;96481.56;;;5.43;100.00
70411;BME280;57832;46.038;11.398;2023-03-26T00:47:22;96493.94;;;5.48;100.00
70411;BME280;57832;46.038;11.398;2023-03-26T00:49:48;96491.09;;;5.80;100.00
70411;BME280;57832;46.038;11.398;2023-03-26T00:52:15;96491.16;;;6.03;100.00
70411;BME280;57832;46.038;11.398;2023-03-26T00:54:45;96489.16;;;5.45;100.00
70411;BME280;57832;46.038;11.398;2023-03-26T00:57:12;96485.66;;;5.21;100.00
70411;BME280;57832;46.038;11.398;2023-03-26T00:59:39;96478.69;;;5.63;100.00
70411;BME280;57832;46.038;11.398;2023-03-26T01:02:06;96480.59;;;5.86;100.00
70411;BME280;57832;46.038;11.398;2023-03-26T01:04:35;96481.03;;;5.83;100.00
70411;BME280;57832;46.038;11.398;2023-03-26T01:07:13;96460.22;;;5.41;100.00
70411;BME280;57832;46.038;11.398;2023-03-26T01:09:43;96463.72;;;5.47;100.00
70411;BME280;57832;46.038;11.398;2023-03-26T01:12:20;96465.31;;;5.90;100.00
70411;BME280;57832;46.038;11.398;2023-03-26T01:14:48;96468.03;;;5.95;100.00
70411;BME280;57832;46.038;11.398;2023-03-26T01:17:15;96461.09;;;5.77;100.00
70411;BME280;57832;46.038;11.398;2023-03-26T01:19:52;96462.44;;;5.38;100.00
70411;BME280;57832;46.038;11.398;2023-03-26T01:23:00;96473.41;;;5.09;100.00
70411;BME280;57832;46.038;11.398;2023-03-26T01:25:39;96482.19;;;5.27;100.00
70411;BME280;57832;46.038;11.398;2023-03-26T01:28:09;96481.31;;;5.63;100.00
70411;BME280;57832;46.038;11.398;2023-03-26T01:30:51;96458.00;;;5.68;100.00
70411;BME280;57832;46.038;11.398;2023-03-26T01:33:44;96455.88;;;5.65;100.00
70411;BME280;57832;46.038;11.398;2023-03-26T01:36:31;96446.91;;;5.00;100.00
70411;BME280;57832;46.038;11.398;2023-03-26T01:39:13;96440.91;;;5.61;100.00
70411;BME280;57832;46.038;11.398;2023-03-26T01:42:14;96428.63;;;4.89;100.00
70411;BME280;57832;46.038;11.398;2023-03-26T01:44:46;96445.03;;;5.38;100.00
70411;BME280;57832;46.038;11.398;2023-03-26T01:47:29;96437.97;;;5.27;100.00
70411;BME280;57832;46.038;11.398;2023-03-26T01:49:55;96433.41;;;5.52;100.00
70411;BME280;57832;46.038;11.398;2023-03-26T01:52:22;96425.56;;;5.71;100.00
70411;BME280;57832;46.038;11.398;2023-03-26T01:55:08;96425.84;;;5.51;100.00
70411;BME280;57832;46.038;11.398;2023-03-26T02:03:15;96426.47;;;5.34;100.00
70411;BME280;57832;46.038;11.398;2023-03-26T02:06:09;96428.69;;;5.49;100.00
70411;BME280;57832;46.038;11.398;2023-03-26T02:09:02;96426.84;;;5.50;100.00
70411;BME280;57832;46.038;11.398;2023-03-26T02:11:30;96428.50;;;5.75;100.00
70411;BME280;57832;46.038;11.398;2023-03-26T02:13:56;96426.47;;;5.77;100.00
70411;BME280;57832;46.038;11.398;2023-03-26T02:16:22;96430.06;;;5.64;100.00
70411;BME280;57832;46.038;11.398;2023-03-26T02:18:48;96436.41;;;5.68;100.00
70411;BME280;57832;46.038;11.398;2023-03-26T02:21:22;96436.09;;;5.76;100.00
70411;BME280;57832;46.038;11.398;2023-03-26T02:23:55;96426.25;;;5.66;100.00
70411;BME280;57832;46.038;11.398;2023-03-26T02:26:31;96426.47;;;5.77;100.00
70411;BME280;57832;46.038;11.398;2023-03-26T02:28:58;96424.94;;;5.45;100.00
70411;BME280;57832;46.038;11.398;2023-03-26T02:31:24;96425.69;;;5.76;100.00
70411;BME280;57832;46.038;11.398;2023-03-26T02:33:51;96433.84;;;5.80;100.00
70411;BME280;57832;46.038;11.398;2023-03-26T02:36:17;96437.72;;;5.47;100.00
70411;BME280;57832;46.038;11.398;2023-03-26T02:38:49;96443.75;;;5.29;100.00
70411;BME280;57832;46.038;11.398;2023-03-26T02:41:15;96436.78;;;5.41;100.00
70411;BME280;57832;46.038;11.398;2023-03-26T02:43:41;96441.78;;;5.43;100.00
70411;BME280;57832;46.038;11.398;2023-03-26T02:46:06;96437.34;;;5.43;100.00
70411;BME280;57832;46.038;11.398;2023-03-26T02:48:31;96431.44;;;5.66;100.00
70411;BME280;57832;46.038;11.398;2023-03-26T02:51:02;96438.28;;;5.49;100.00
70411;BME280;57832;46.038;11.398;2023-03-26T02:53:28;96438.91;;;5.32;100.00
70411;BME280;57832;46.038;11.398;2023-03-26T02:55:58;96441.91;;;5.48;100.00
70411;BME280;57832;46.038;11.398;2023-03-26T02:58:25;96445.78;;;5.69;100.00
70411;BME280;57832;46.038;11.398;2023-03-26T03:00:52;96445.78;;;5.57;100.00
70411;BME280;57832;46.038;11.398;2023-03-26T03:03:22;96438.75;;;5.58;100.00
70411;BME280;57832;46.038;11.398;2023-03-26T03:05:50;96429.25;;;5.63;100.00
70411;BME280;57832;46.038;11.398;2023-03-26T03:08:17;96429.53;;;5.74;100.00
70411;BME280;57832;46.038;11.398;2023-03-26T03:10:43;96430.38;;;5.98;100.00
70411;BME280;57832;46.038;11.398;2023-03-26T03:13:09;96428.31;;;5.46;100.00
70411;BME280;57832;46.038;11.398;2023-03-26T03:15:34;96428.59;;;5.56;100.00
70411;BME280;57832;46.038;11.398;2023-03-26T03:18:00;96419.66;;;5.64;100.00
70411;BME280;57832;46.038;11.398;2023-03-26T03:20:25;96417.78;;;5.95;100.00
70411;BME280;57832;46.038;11.398;2023-03-26T03:22:51;96409.66;;;6.03;100.00
70411;BME280;57832;46.038;11.398;2023-03-26T03:25:16;96414.41;;;6.06;100.00
70411;BME280;57832;46.038;11.398;2023-03-26T03:27:43;96410.97;;;5.40;100.00
70411;BME280;57832;46.038;11.398;2023-03-26T03:30:11;96413.97;;;4.94;100.00
70411;BME280;57832;46.038;11.398;2023-03-26T03:32:37;96416.88;;;4.86;100.00
70411;BME280;57832;46.038;11.398;2023-03-26T03:35:04;96415.44;;;5.21;100.00
70411;BME280;57832;46.038;11.398;2023-03-26T03:37:30;96405.50;;;5.48;100.00
70411;BME280;57832;46.038;11.398;2023-03-26T03:39:55;96406.03;;;5.50;100.00
70411;BME280;57832;46.038;11.398;2023-03-26T03:42:21;96396.59;;;4.95;100.00
70411;BME280;57832;46.038;11.398;2023-03-26T03:44:46;96402.94;;;4.80;100.00
70411;BME280;57832;46.038;11.398;2023-03-26T03:47:12;96408.59;;;4.77;100.00
70411;BME280;57832;46.038;11.398;2023-03-26T03:49:42;96412.41;;;4.93;100.00
70411;BME280;57832;46.038;11.398;2023-03-26T03:52:08;96407.19;;;5.24;100.00
70411;BME280;57832;46.038;11.398;2023-03-26T03:54:33;96406.00;;;5.08;100.00
70411;BME280;57832;46.038;11.398;2023-03-26T03:56:59;96408.56;;;4.96;100.00
70411;BME280;57832;46.038;11.398;2023-03-26T03:59:26;96403.28;;;5.33;100.00
70411;BME280;57832;46.038;11.398;2023-03-26T04:01:51;96399.25;;;5.07;100.00
70411;BME280;57832;46.038;11.398;2023-03-26T04:04:17;96397.47;;;5.19;100.00
70411;BME280;57832;46.038;11.398;2023-03-26T04:06:42;96403.22;;;5.21;100.00
70411;BME280;57832;46.038;11.398;2023-03-26T04:09:08;96396.28;;;5.03;100.00
70411;BME280;57832;46.038;11.398;2023-03-26T04:11:37;96399.66;;;4.55;100.00
70411;BME280;57832;46.038;11.398;2023-03-26T04:14:02;96404.31;;;4.83;100.00
70411;BME280;57832;46.038;11.398;2023-03-26T04:16:28;96399.13;;;4.64;100.00
70411;BME280;57832;46.038;11.398;2023-03-26T04:18:53;96394.13;;;5.00;100.00
70411;BME280;57832;46.038;11.398;2023-03-26T04:21:19;96380.19;;;4.94;100.00
70411;BME280;57832;46.038;11.398;2023-03-26T04:23:45;96374.84;;;4.89;100.00
70411;BME280;57832;46.038;11.398;2023-03-26T04:26:15;96369.25;;;4.74;100.00
70411;BME280;57832;46.038;11.398;2023-03-26T04:28:51;96363.69;;;4.70;100.00
70411;BME280;57832;46.038;11.398;2023-03-26T04:31:21;96359.31;;;4.33;100.00
70411;BME280;57832;46.038;11.398;2023-03-26T04:33:55;96366.78;;;4.05;100.00
70411;BME280;57832;46.038;11.398;2023-03-26T04:36:28;96363.69;;;4.33;100.00
70411;BME280;57832;46.038;11.398;2023-03-26T04:38:57;96359.72;;;3.93;100.00
70411;BME280;57832;46.038;11.398;2023-03-26T04:41:26;96368.81;;;3.77;100.00
70411;BME280;57832;46.038;11.398;2023-03-26T04:43:53;96375.28;;;3.93;100.00
70411;BME280;57832;46.038;11.398;2023-03-26T04:46:20;96374.97;;;3.58;100.00
70411;BME280;57832;46.038;11.398;2023-03-26T04:48:49;96375.81;;;3.77;100.00
70411;BME280;57832;46.038;11.398;2023-03-26T04:51:15;96375.59;;;4.41;100.00
70411;BME280;57832;46.038;11.398;2023-03-26T04:53:50;96383.06;;;4.12;100.00
70411;BME280;57832;46.038;11.398;2023-03-26T04:56:52;96380.50;;;4.30;100.00
70411;BME280;57832;46.038;11.398;2023-03-26T04:59:30;96379.13;;;4.09;100.00
70411;BME280;57832;46.038;11.398;2023-03-26T05:01:59;96391.19;;;3.46;100.00
70411;BME280;57832;46.038;11.398;2023-03-26T05:04:26;96385.00;;;3.15;100.00
70411;BME280;57832;46.038;11.398;2023-03-26T05:06:58;96387.88;;;3.64;100.00
70411;BME280;57832;46.038;11.398;2023-03-26T05:09:26;96388.13;;;4.07;100.00
70411;BME280;57832;46.038;11.398;2023-03-26T05:11:52;96381.78;;;4.03;100.00
70411;BME280;57832;46.038;11.398;2023-03-26T05:14:18;96372.41;;;4.01;100.00
70411;BME280;57832;46.038;11.398;2023-03-26T05:16:45;96377.25;;;3.41;100.00
70411;BME280;57832;46.038;11.398;2023-03-26T05:19:12;96373.38;;;3.57;100.00
70411;BME280;57832;46.038;11.398;2023-03-26T05:21:38;96376.78;;;4.01;100.00
70411;BME280;57832;46.038;11.398;2023-03-26T05:24:04;96365.84;;;3.74;100.00
70411;BME280;57832;46.038;11.398;2023-03-26T05:26:34;96363.19;;;4.06;100.00
70411;BME280;57832;46.038;11.398;2023-03-26T05:29:01;96367.81;;;3.78;100.00
70411;BME280;57832;46.038;11.398;2023-03-26T05:31:27;96368.00;;;4.02;100.00
70411;BME280;57832;46.038;11.398;2023-03-26T05:33:55;96375.91;;;3.89;100.00
70411;BME280;57832;46.038;11.398;2023-03-26T05:36:21;96381.94;;;3.82;100.00
70411;BME280;57832;46.038;11.398;2023-03-26T05:38:47;96384.91;;;3.86;100.00
70411;BME280;57832;46.038;11.398;2023-03-26T05:41:15;96384.84;;;3.93;100.00
70411;BME280;57832;46.038;11.398;2023-03-26T05:43:41;96392.06;;;3.65;100.00
70411;BME280;57832;46.038;11.398;2023-03-26T05:46:09;96391.56;;;3.50;100.00
70411;BME280;57832;46.038;11.398;2023-03-26T05:48:35;96388.13;;;3.56;100.00
70411;BME280;57832;46.038;11.398;2023-03-26T05:51:02;96387.34;;;3.24;100.00
70411;BME280;57832;46.038;11.398;2023-03-26T05:53:28;96387.06;;;3.07;100.00
70411;BME280;57832;46.038;11.398;2023-03-26T05:55:55;96400.44;;;3.35;100.00
70411;BME280;57832;46.038;11.398;2023-03-26T05:58:24;96386.22;;;3.45;100.00
70411;BME280;57832;46.038;11.398;2023-03-26T06:01:00;96396.78;;;3.75;100.00
70411;BME280;57832;46.038;11.398;2023-03-26T06:03:31;96400.91;;;3.83;100.00
70411;BME280;57832;46.038;11.398;2023-03-26T06:05:57;96403.81;;;3.68;100.00
70411;BME280;57832;46.038;11.398;2023-03-26T06:08:23;96400.50;;;3.22;100.00
70411;BME280;57832;46.038;11.398;2023-03-26T06:10:49;96406.16;;;3.12;100.00
70411;BME280;57832;46.038;11.398;2023-03-26T06:13:18;96413.47;;;3.54;100.00
70411;BME280;57832;46.038;11.398;2023-03-26T06:15:43;96411.09;;;3.53;100.00
70411;BME280;57832;46.038;11.398;2023-03-26T06:18:09;96414.97;;;3.37;100.00
70411;BME280;57832;46.038;11.398;2023-03-26T06:20:34;96420.34;;;3.99;100.00
70411;BME280;57832;46.038;11.398;2023-03-26T06:23:01;96423.06;;;4.66;100.00
70411;BME280;57832;46.038;11.398;2023-03-26T06:25:27;96412.13;;;5.32;100.00
70411;BME280;57832;46.038;11.398;2023-03-26T06:27:52;96419.81;;;5.39;100.00
70411;BME280;57832;46.038;11.398;2023-03-26T06:30:18;96408.44;;;5.63;100.00
70411;BME280;57832;46.038;11.398;2023-03-26T06:32:43;96408.00;;;5.55;100.00
70411;BME280;57832;46.038;11.398;2023-03-26T06:35:09;96420.28;;;5.90;100.00
70411;BME280;57832;46.038;11.398;2023-03-26T06:37:36;96410.34;;;6.22;100.00
70411;BME280;57832;46.038;11.398;2023-03-26T06:40:02;96412.41;;;6.32;100.00
70411;BME280;57832;46.038;11.398;2023-03-26T06:42:28;96402.63;;;6.51;100.00
70411;BME280;57832;46.038;11.398;2023-03-26T06:44:53;96403.47;;;6.92;100.00
70411;BME280;57832;46.038;11.398;2023-03-26T06:47:19;96398.53;;;5.72;100.00
70411;BME280;57832;46.038;11.398;2023-03-26T06:49:45;96395.78;;;6.74;100.00
70411;BME280;57832;46.038;11.398;2023-03-26T06:52:10;96383.88;;;7.18;100.00
70411;BME280;57832;46.038;11.398;2023-03-26T06:54:37;96392.66;;;7.29;100.00
70411;BME280;57832;46.038;11.398;2023-03-26T06:57:02;96385.16;;;6.63;100.00
70411;BME280;57832;46.038;11.398;2023-03-26T06:59:28;96388.16;;;6.31;100.00
70411;BME280;57832;46.038;11.398;2023-03-26T07:01:54;96391.09;;;6.23;100.00
70411;BME280;57832;46.038;11.398;2023-03-26T07:04:19;96393.94;;;5.98;100.00
70411;BME280;57832;46.038;11.398;2023-03-26T07:06:45;96382.59;;;6.92;100.00
70411;BME280;57832;46.038;11.398;2023-03-26T07:09:10;96377.69;;;7.70;100.00
70411;BME280;57832;46.038;11.398;2023-03-26T07:11:36;96366.78;;;7.11;100.00
70411;BME280;57832;46.038;11.398;2023-03-26T07:14:01;96369.28;;;7.34;100.00
70411;BME280;57832;46.038;11.398;2023-03-26T07:16:27;96356.72;;;7.65;100.00
70411;BME280;57832;46.038;11.398;2023-03-26T07:18:52;96345.97;;;8.18;100.00
70411;BME280;57832;46.038;11.398;2023-03-26T07:21:20;96353.03;;;8.79;100.00
70411;BME280;57832;46.038;11.398;2023-03-26T07:23:46;96325.50;;;9.26;100.00
70411;BME280;57832;46.038;11.398;2023-03-26T07:26:37;96310.03;;;9.89;100.00
70411;BME280;57832;46.038;11.398;2023-03-26T07:29:14;96300.00;;;10.24;100.00
70411;BME280;57832;46.038;11.398;2023-03-26T07:31:59;96288.97;;;10.95;100.00
70411;BME280;57832;46.038;11.398;2023-03-26T07:34:38;96281.03;;;10.69;100.00
70411;BME280;57832;46.038;11.398;2023-03-26T07:39:54;96261.94;;;11.57;100.00
70411;BME280;57832;46.038;11.398;2023-03-26T07:47:35;96233.06;;;11.51;100.00
70411;BME280;57832;46.038;11.398;2023-03-26T07:50:01;96229.38;;;11.68;100.00
70411;BME280;57832;46.038;11.398;2023-03-26T07:52:28;96224.06;;;11.83;100.00
70411;BME280;57832;46.038;11.398;2023-03-26T07:54:54;96226.97;;;11.77;100.00
70411;BME280;57832;46.038;11.398;2023-03-26T08:00:10;96204.09;;;12.53;100.00
70411;BME280;57832;46.038;11.398;2023-03-26T08:03:20;96206.72;;;12.53;100.00
70411;BME280;57832;46.038;11.398;2023-03-26T08:06:02;96207.31;;;12.40;100.00
70411;BME280;57832;46.038;11.398;2023-03-26T08:08:40;96202.28;;;12.43;100.00
70411;BME280;57832;46.038;11.398;2023-03-26T08:17:10;96190.38;;;13.30;100.00
70411;BME280;57832;46.038;11.398;2023-03-26T08:20:00;96195.81;;;13.68;100.00
70411;BME280;57832;46.038;11.398;2023-03-26T08:22:40;96192.88;;;13.46;100.00
70411;BME280;57832;46.038;11.398;2023-03-26T08:30:25;96164.22;;;14.50;100.00
70411;BME280;57832;46.038;11.398;2023-03-26T08:32:56;96162.59;;;14.73;100.00
70411;BME280;57832;46.038;11.398;2023-03-26T08:35:24;96158.09;;;15.07;100.00
70411;BME280;57832;46.038;11.398;2023-03-26T08:37:50;96155.53;;;15.34;100.00
70411;BME280;57832;46.038;11.398;2023-03-26T08:40:39;96158.50;;;15.14;100.00
70411;BME280;57832;46.038;11.398;2023-03-26T08:49:02;96138.25;;;15.84;100.00
70411;BME280;57832;46.038;11.398;2023-03-26T09:03:12;96126.31;;;16.23;100.00
70411;BME280;57832;46.038;11.398;2023-03-26T09:08:50;96110.31;;;17.19;94.78
70411;BME280;57832;46.038;11.398;2023-03-26T09:20:14;96067.69;;;16.52;100.00
70411;BME280;57832;46.038;11.398;2023-03-26T09:25:40;96078.81;;;16.63;100.00
70411;BME280;57832;46.038;11.398;2023-03-26T09:28:27;96072.84;;;16.80;100.00
70411;BME280;57832;46.038;11.398;2023-03-26T09:39:38;96057.75;;;17.03;99.29
70411;BME280;57832;46.038;11.398;2023-03-26T09:42:36;96046.88;;;17.71;96.33
70411;BME280;57832;46.038;11.398;2023-03-26T09:47:57;96032.09;;;19.05;78.29
70411;BME280;57832;46.038;11.398;2023-03-26T10:07:40;95974.31;;;19.75;57.99
70411;BME280;57832;46.038;11.398;2023-03-26T10:13:14;95972.59;;;20.46;57.99
70411;BME280;57832;46.038;11.398;2023-03-26T10:18:24;95961.59;;;21.05;52.90
70411;BME280;57832;46.038;11.398;2023-03-26T10:21:04;95958.56;;;21.44;50.48
70411;BME280;57832;46.038;11.398;2023-03-26T10:26:31;95941.88;;;21.60;47.56
70411;BME280;57832;46.038;11.398;2023-03-26T10:35:05;95884.25;;;21.71;44.95
70411;BME280;57832;46.038;11.398;2023-03-26T10:40:26;95883.00;;;22.73;44.07
70411;BME280;57832;46.038;11.398;2023-03-26T10:43:09;95875.06;;;22.13;41.60
70411;BME280;57832;46.038;11.398;2023-03-26T10:51:43;95883.47;;;23.66;42.76
70411;BME280;57832;46.038;11.398;2023-03-26T10:57:05;95883.88;;;24.77;39.41
70411;BME280;57832;46.038;11.398;2023-03-26T10:59:34;95880.19;;;23.17;42.96
70411;BME280;57832;46.038;11.398;2023-03-26T11:02:23;95868.72;;;22.49;43.24
70411;BME280;57832;46.038;11.398;2023-03-26T11:08:02;95866.72;;;20.55;49.07
70411;BME280;57832;46.038;11.398;2023-03-26T11:10:41;95854.72;;;20.24;53.75
70411;BME280;57832;46.038;11.398;2023-03-26T11:26:37;95815.09;;;18.59;73.65
70411;BME280;57832;46.038;11.398;2023-03-26T11:29:25;95806.22;;;19.05;69.54
70411;BME280;57832;46.038;11.398;2023-03-26T11:35:23;95780.81;;;18.66;74.23
70411;BME280;57832;46.038;11.398;2023-03-26T11:37:31;95775.94;;;18.17;75.78
70411;BME280;57832;46.038;11.398;2023-03-26T11:40:01;95762.56;;;18.04;78.94
70411;BME280;57832;46.038;11.398;2023-03-26T11:42:31;95764.38;;;18.21;71.43
70411;BME280;57832;46.038;11.398;2023-03-26T11:45:15;95765.69;;;17.50;73.11
70411;BME280;57832;46.038;11.398;2023-03-26T11:47:50;95777.41;;;17.23;76.50
70411;BME280;57832;46.038;11.398;2023-03-26T11:50:24;95765.72;;;17.07;76.25
70411;BME280;57832;46.038;11.398;2023-03-26T11:52:54;95766.03;;;17.14;78.84
70411;BME280;57832;46.038;11.398;2023-03-26T11:55:22;95776.41;;;17.63;79.09
70411;BME280;57832;46.038;11.398;2023-03-26T11:57:58;95771.91;;;17.54;78.44
70411;BME280;57832;46.038;11.398;2023-03-26T12:00:25;95764.28;;;17.53;78.28
70411;BME280;57832;46.038;11.398;2023-03-26T12:02:57;95752.75;;;17.31;73.89
70411;BME280;57832;46.038;11.398;2023-03-26T12:05:24;95743.03;;;17.62;71.76
70411;BME280;57832;46.038;11.398;2023-03-26T12:07:55;95730.91;;;17.43;79.45
70411;BME280;57832;46.038;11.398;2023-03-26T12:12:58;95719.75;;;17.29;89.48
70411;BME280;57832;46.038;11.398;2023-03-26T12:15:24;95729.53;;;16.84;93.85
70411;BME280;57832;46.038;11.398;2023-03-26T12:17:54;95731.59;;;17.05;83.76
70411;BME280;57832;46.038;11.398;2023-03-26T12:20:32;95725.69;;;16.99;84.31
70411;BME280;57832;46.038;11.398;2023-03-26T12:23:01;95725.81;;;16.85;91.78
70411;BME280;57832;46.038;11.398;2023-03-26T12:28:15;95721.16;;;16.82;100.00
70411;BME280;57832;46.038;11.398;2023-03-26T12:30:57;95713.34;;;16.68;97.07
70411;BME280;57832;46.038;11.398;2023-03-26T12:33:30;95705.09;;;16.87;99.31
70411;BME280;57832;46.038;11.398;2023-03-26T12:36:15;95696.78;;;16.19;99.39
70411;BME280;57832;46.038;11.398;2023-03-26T12:38:42;95694.19;;;16.45;91.42
70411;BME280;57832;46.038;11.398;2023-03-26T12:41:15;95689.66;;;16.28;88.67
70411;BME280;57832;46.038;11.398;2023-03-26T12:43:49;95691.31;;;16.07;92.87
70411;BME280;57832;46.038;11.398;2023-03-26T12:48:55;95679.13;;;15.88;85.30
70411;BME280;57832;46.038;11.398;2023-03-26T12:54:05;95670.69;;;16.26;86.15
70411;BME280;57832;46.038;11.398;2023-03-26T13:16:23;95651.00;;;15.20;99.77
70411;BME280;57832;46.038;11.398;2023-03-26T13:18:59;95643.56;;;15.23;100.00
70411;BME280;57832;46.038;11.398;2023-03-26T13:22:29;95633.66;;;14.97;100.00
70411;BME280;57832;46.038;11.398;2023-03-26T13:25:02;95634.53;;;14.69;100.00
70411;BME280;57832;46.038;11.398;2023-03-26T13:27:58;95639.09;;;14.78;100.00
70411;BME280;57832;46.038;11.398;2023-03-26T13:33:33;95630.53;;;14.72;100.00
70411;BME280;57832;46.038;11.398;2023-03-26T13:39:19;95626.19;;;14.53;100.00
70411;BME280;57832;46.038;11.398;2023-03-26T13:42:03;95628.50;;;14.69;100.00
70411;BME280;57832;46.038;11.398;2023-03-26T13:44:54;95631.84;;;14.24;100.00
70411;BME280;57832;46.038;11.398;2023-03-26T13:47:28;95635.94;;;14.30;100.00
70411;BME280;57832;46.038;11.398;2023-03-26T13:50:13;95645.47;;;14.03;100.00
70411;BME280;57832;46.038;11.398;2023-03-26T13:52:47;95632.75;;;14.05;100.00
70411;BME280;57832;46.038;11.398;2023-03-26T13:55:34;95627.72;;;13.81;100.00
70411;BME280;57832;46.038;11.398;2023-03-26T14:00:51;95619.13;;;13.62;100.00
70411;BME280;57832;46.038;11.398;2023-03-26T14:03:31;95610.28;;;13.44;100.00
70411;BME280;57832;46.038;11.398;2023-03-26T14:06:27;95601.88;;;13.42;100.00
70411;BME280;57832;46.038;11.398;2023-03-26T14:09:00;95610.91;;;13.35;100.00
70411;BME280;57832;46.038;11.398;2023-03-26T14:14:38;95611.03;;;13.44;100.00
70411;BME280;57832;46.038;11.398;2023-03-26T14:20:12;95614.50;;;12.46;100.00
70411;BME280;57832;46.038;11.398;2023-03-26T14:28:25;95628.97;;;11.62;100.00
70411;BME280;57832;46.038;11.398;2023-03-26T14:31:21;95641.88;;;11.82;100.00
70411;BME280;57832;46.038;11.398;2023-03-26T14:41:51;95680.25;;;10.95;100.00
70411;BME280;57832;46.038;11.398;2023-03-26T14:47:25;95687.00;;;11.07;100.00
70411;BME280;57832;46.038;11.398;2023-03-26T14:52:49;95693.56;;;11.09;100.00
70411;BME280;57832;46.038;11.398;2023-03-26T14:58:22;95688.25;;;11.44;100.00
70411;BME280;57832;46.038;11.398;2023-03-26T15:01:24;95683.47;;;11.21;100.00
70411;BME280;57832;46.038;11.398;2023-03-26T15:07:15;95679.13;;;11.07;100.00
70411;BME280;57832;46.038;11.398;2023-03-26T15:32:27;95748.41;;;9.95;100.00
70411;BME280;57832;46.038;11.398;2023-03-26T15:41:12;95734.13;;;10.43;100.00
70411;BME280;57832;46.038;11.398;2023-03-26T15:51:41;95705.03;;;10.34;100.00
70411;BME280;57832;46.038;11.398;2023-03-26T16:02:01;95728.25;;;10.01;100.00
70411;BME280;57832;46.038;11.398;2023-03-26T16:07:45;95716.59;;;10.28;100.00
70411;BME280;57832;46.038;11.398;2023-03-26T16:15:43;95705.91;;;9.17;100.00
70411;BME280;57832;46.038;11.398;2023-03-26T16:18:18;95707.38;;;9.65;100.00
70411;BME280;57832;46.038;11.398;2023-03-26T16:24:16;95693.78;;;9.58;100.00
70411;BME280;57832;46.038;11.398;2023-03-26T16:32:16;95622.34;;;9.57;100.00
70411;BME280;57832;46.038;11.398;2023-03-26T16:35:00;95630.22;;;9.47;100.00
70411;BME280;57832;46.038;11.398;2023-03-26T16:37:36;95638.06;;;9.47;100.00
70411;BME280;57832;46.038;11.398;2023-03-26T16:50:50;95641.03;;;8.99;100.00
70411;BME280;57832;46.038;11.398;2023-03-26T16:56:02;95642.56;;;9.36;100.00
70411;BME280;57832;46.038;11.398;2023-03-26T16:58:58;95644.13;;;9.32;100.00
70411;BME280;57832;46.038;11.398;2023-03-26T17:01:38;95642.00;;;9.44;100.00
70411;BME280;57832;46.038;11.398;2023-03-26T17:04:16;95627.69;;;9.21;100.00
70411;BME280;57832;46.038;11.398;2023-03-26T17:15:20;95549.50;;;8.99;100.00
70411;BME280;57832;46.038;11.398;2023-03-26T17:18:23;95525.66;;;9.21;100.00
70411;BME280;57832;46.038;11.398;2023-03-26T17:21:15;95531.50;;;8.87;100.00
70411;BME280;57832;46.038;11.398;2023-03-26T17:29:25;95517.19;;;8.53;100.00
70411;BME280;57832;46.038;11.398;2023-03-26T17:44:48;95513.25;;;8.61;100.00
70411;BME280;57832;46.038;11.398;2023-03-26T17:47:22;95517.66;;;8.66;100.00
70411;BME280;57832;46.038;11.398;2023-03-26T17:49:52;95523.94;;;8.70;100.00
70411;BME280;57832;46.038;11.398;2023-03-26T17:52:28;95518.97;;;8.32;100.00
70411;BME280;57832;46.038;11.398;2023-03-26T17:54:59;95509.06;;;8.19;100.00
70411;BME280;57832;46.038;11.398;2023-03-26T17:57:44;95499.66;;;8.18;100.00
70411;BME280;57832;46.038;11.398;2023-03-26T18:00:24;95479.53;;;7.87;100.00
70411;BME280;57832;46.038;11.398;2023-03-26T18:03:00;95479.53;;;7.98;100.00
70411;BME280;57832;46.038;11.398;2023-03-26T18:05:28;95476.44;;;7.96;100.00
70411;BME280;57832;46.038;11.398;2023-03-26T18:16:50;95462.53;;;8.62;100.00
70411;BME280;57832;46.038;11.398;2023-03-26T18:19:20;95452.59;;;8.64;100.00
70411;BME280;57832;46.038;11.398;2023-03-26T18:21:58;95458.59;;;8.65;100.00
70411;BME280;57832;46.038;11.398;2023-03-26T18:24:37;95459.13;;;8.62;100.00
70411;BME280;57832;46.038;11.398;2023-03-26T18:27:13;95464.16;;;8.12;100.00
70411;BME280;57832;46.038;11.398;2023-03-26T18:29:58;95463.09;;;8.08;100.00